createdAt,value
2023-04-07T00:02:00.229Z,0.80
2023-04-07T00:04:33.819Z,0.69
2023-04-07T00:07:00.914Z,0.64
2023-04-07T00:09:33.364Z,0.62
2023-04-07T00:12:04.656Z,0.54
2023-04-07T00:14:32.178Z,0.52
2023-04-07T00:16:59.633Z,0.75
2023-04-07T00:19:27.370Z,0.68
2023-04-07T00:21:55.694Z,0.62
2023-04-07T00:24:33.942Z,0.63
2023-04-07T00:27:04.017Z,0.60
2023-04-07T00:29:31.416Z,0.55
2023-04-07T00:31:58.836Z,0.60
2023-04-07T00:34:27.367Z,0.55
2023-04-07T00:36:54.890Z,0.52
2023-04-07T00:39:22.234Z,0.59
2023-04-07T00:41:51.673Z,0.57
2023-04-07T00:44:19.315Z,0.59
2023-04-07T00:46:48.170Z,0.64
2023-04-07T00:49:18.133Z,0.61
2023-04-07T00:51:47.871Z,0.57
2023-04-07T00:54:15.978Z,0.53
2023-04-07T00:56:44.214Z,0.65
2023-04-07T00:59:11.679Z,0.58
2023-04-07T01:01:48.905Z,0.64
2023-04-07T01:04:48.380Z,0.64
2023-04-07T01:07:50.243Z,0.52
2023-04-07T01:10:27.382Z,0.55
2023-04-07T01:13:02.991Z,0.46
2023-04-07T01:15:32.310Z,0.46
2023-04-07T01:18:20.005Z,0.44
2023-04-07T01:20:50.724Z,0.55
2023-04-07T01:23:28.650Z,0.53
2023-04-07T01:26:19.259Z,0.49
2023-04-07T01:29:01.838Z,0.51
2023-04-07T01:31:29.769Z,0.54
2023-04-07T01:34:00.788Z,0.61
2023-04-07T01:36:34.704Z,0.64
2023-04-07T01:39:10.030Z,0.58
2023-04-07T01:41:39.575Z,0.71
2023-04-07T01:44:11.652Z,0.76
2023-04-07T01:46:40.041Z,0.93
2023-04-07T01:49:08.680Z,1.03
2023-04-07T01:51:36.319Z,1.10
2023-04-07T01:54:10.198Z,1.11
2023-04-07T01:56:37.433Z,1.19
2023-04-07T01:59:04.853Z,1.18
2023-04-07T02:01:32.422Z,1.14
2023-04-07T02:04:25.840Z,1.22
2023-04-07T02:06:59.971Z,1.27
2023-04-07T02:09:32.160Z,1.20
2023-04-07T02:12:02.513Z,1.37
2023-04-07T02:14:30.141Z,1.36
2023-04-07T02:17:01.816Z,1.41
2023-04-07T02:19:30.760Z,1.47
2023-04-07T02:22:03.103Z,1.40
2023-04-07T02:24:31.064Z,1.37
2023-04-07T02:26:58.904Z,1.48
2023-04-07T02:29:28.303Z,1.47
2023-04-07T02:31:57.064Z,1.48
2023-04-07T02:34:24.486Z,1.52
2023-04-07T02:36:52.019Z,1.55
2023-04-07T02:39:19.543Z,1.45
2023-04-07T02:41:46.857Z,1.50
2023-04-07T02:44:15.433Z,1.49
2023-04-07T02:46:43.825Z,1.55
2023-04-07T02:49:11.347Z,1.58
2023-04-07T02:51:38.848Z,1.55
2023-04-07T02:54:07.284Z,1.61
2023-04-07T02:56:34.669Z,1.60
2023-04-07T02:59:02.202Z,1.62
2023-04-07T03:01:36.664Z,1.61
2023-04-07T03:04:04.408Z,1.56
2023-04-07T03:06:33.875Z,1.56
2023-04-07T03:09:01.433Z,1.58
2023-04-07T03:11:30.718Z,1.64
2023-04-07T03:13:58.368Z,1.55
2023-04-07T03:16:25.859Z,1.69
2023-04-07T03:18:55.081Z,1.66
2023-04-07T03:21:22.558Z,1.64
2023-04-07T03:23:59.379Z,1.64
2023-04-07T03:26:28.941Z,1.69
2023-04-07T03:28:58.445Z,1.76
2023-04-07T03:31:31.830Z,1.69
2023-04-07T03:33:59.176Z,1.72
2023-04-07T03:36:28.380Z,1.67
2023-04-07T03:39:02.089Z,1.70
2023-04-07T03:41:30.565Z,1.76
2023-04-07T03:43:59.088Z,1.84
2023-04-07T03:46:27.484Z,1.89
2023-04-07T03:48:54.858Z,1.92
2023-04-07T03:51:22.393Z,1.95
2023-04-07T03:53:55.881Z,1.97
2023-04-07T03:56:25.402Z,2.03
2023-04-07T03:58:53.867Z,2.02
2023-04-07T04:01:21.384Z,1.99
2023-04-07T04:03:50.222Z,2.00
2023-04-07T04:06:17.781Z,2.02
2023-04-07T04:08:46.338Z,1.99
2023-04-07T04:11:13.811Z,2.03
2023-04-07T04:13:41.328Z,2.06
2023-04-07T04:16:08.952Z,2.07
2023-04-07T04:18:36.260Z,2.05
2023-04-07T04:21:03.899Z,2.06
2023-04-07T04:23:32.002Z,2.04
2023-04-07T04:26:00.598Z,2.09
2023-04-07T04:28:27.939Z,2.11
2023-04-07T04:30:55.706Z,2.10
2023-04-07T04:33:22.905Z,2.06
2023-04-07T04:35:50.423Z,2.08
2023-04-07T04:38:17.824Z,2.08
2023-04-07T04:40:45.331Z,2.03
2023-04-07T04:43:13.688Z,2.00
2023-04-07T04:45:41.258Z,2.01
2023-04-07T04:48:11.288Z,2.06
2023-04-07T04:50:38.655Z,2.04
2023-04-07T04:53:06.010Z,2.04
2023-04-07T04:55:33.567Z,2.08
2023-04-07T04:58:01.679Z,2.00
2023-04-07T05:00:30.029Z,1.93
2023-04-07T05:02:58.009Z,1.97
2023-04-07T05:05:27.580Z,1.98
2023-04-07T05:07:54.682Z,1.98
2023-04-07T05:10:22.040Z,2.02
2023-04-07T05:12:49.495Z,2.10
2023-04-07T05:15:19.214Z,2.10
2023-04-07T05:17:50.814Z,2.08
2023-04-07T05:20:18.657Z,2.10
2023-04-07T05:22:46.084Z,2.04
2023-04-07T05:25:13.383Z,2.06
2023-04-07T05:27:41.497Z,2.09
2023-04-07T05:30:11.216Z,2.11
2023-04-07T05:32:38.307Z,2.12
2023-04-07T05:35:06.432Z,2.11
2023-04-07T05:37:34.798Z,2.14
2023-04-07T05:40:02.196Z,2.02
2023-04-07T05:42:29.730Z,2.01
2023-04-07T05:44:57.117Z,1.93
2023-04-07T05:47:24.728Z,1.87
2023-04-07T05:49:53.583Z,1.87
2023-04-07T05:52:21.164Z,1.84
2023-04-07T05:54:48.497Z,1.88
2023-04-07T05:57:17.063Z,1.94
2023-04-07T05:59:44.460Z,1.93
2023-04-07T06:02:11.966Z,1.88
2023-04-07T06:04:39.867Z,1.94
2023-04-07T06:07:07.406Z,2.01
2023-04-07T06:09:34.823Z,2.00
2023-04-07T06:12:05.313Z,2.02
2023-04-07T06:14:32.944Z,2.04
2023-04-07T06:17:00.258Z,2.04
2023-04-07T06:19:28.094Z,2.04
2023-04-07T06:21:55.901Z,2.08
2023-04-07T06:24:25.456Z,2.05
2023-04-07T06:26:58.842Z,1.95
2023-04-07T06:29:26.763Z,2.01
2023-04-07T06:31:55.239Z,1.93
2023-04-07T06:34:22.691Z,1.77
2023-04-07T06:36:50.294Z,1.75
2023-04-07T06:39:17.402Z,1.72
2023-04-07T06:41:45.717Z,1.70
2023-04-07T06:44:13.955Z,1.71
2023-04-07T06:46:42.650Z,1.71
2023-04-07T06:49:11.232Z,1.69
2023-04-07T06:51:38.389Z,1.70
2023-04-07T06:54:07.992Z,1.70
2023-04-07T06:56:35.657Z,1.70
2023-04-07T06:59:02.872Z,1.82
2023-04-07T07:01:30.371Z,1.82
2023-04-07T07:03:57.942Z,1.70
2023-04-07T07:06:25.268Z,1.80
2023-04-07T07:08:52.473Z,1.89
2023-04-07T07:11:21.805Z,1.91
2023-04-07T07:13:49.549Z,1.91
2023-04-07T07:16:17.275Z,2.00
2023-04-07T07:18:44.699Z,2.05
2023-04-07T07:21:12.020Z,2.04
2023-04-07T07:23:39.545Z,2.03
2023-04-07T07:26:07.010Z,2.09
2023-04-07T07:28:34.367Z,2.06
2023-04-07T07:31:15.445Z,2.01
2023-04-07T07:33:44.373Z,2.02
2023-04-07T07:36:12.968Z,2.15
2023-04-07T07:38:41.212Z,2.14
2023-04-07T07:41:08.711Z,2.16
2023-04-07T07:43:37.411Z,1.99
2023-04-07T07:46:08.004Z,2.10
2023-04-07T07:48:34.972Z,2.08
2023-04-07T07:51:02.563Z,2.19
2023-04-07T07:53:36.367Z,2.28
2023-04-07T07:56:03.691Z,2.26
2023-04-07T07:58:30.931Z,2.33
2023-04-07T08:00:58.623Z,2.32
2023-04-07T08:03:26.023Z,2.30
2023-04-07T08:05:54.549Z,2.32
2023-04-07T08:08:22.946Z,2.40
2023-04-07T08:10:50.516Z,2.47
2023-04-07T08:13:24.930Z,2.50
2023-04-07T08:15:52.375Z,2.53
2023-04-07T08:18:19.951Z,2.53
2023-04-07T08:20:48.336Z,2.58
2023-04-07T08:23:16.056Z,2.64
2023-04-07T08:25:43.347Z,2.62
2023-04-07T08:28:11.847Z,2.62
2023-04-07T08:30:39.096Z,2.63
2023-04-07T08:33:07.116Z,2.66
2023-04-07T08:35:34.746Z,2.64
2023-04-07T08:38:04.091Z,2.63
2023-04-07T08:40:32.877Z,2.64
2023-04-07T08:43:04.673Z,2.66
2023-04-07T08:45:33.060Z,2.67
2023-04-07T08:48:05.245Z,2.57
2023-04-07T08:50:34.437Z,2.74
2023-04-07T08:53:08.793Z,2.89
2023-04-07T08:55:36.883Z,2.93
2023-04-07T08:58:04.623Z,2.92
2023-04-07T09:00:32.950Z,2.92
2023-04-07T09:03:01.820Z,2.93
2023-04-07T09:05:31.229Z,2.85
2023-04-07T09:07:58.429Z,2.84
2023-04-07T09:10:26.720Z,2.77
2023-04-07T09:12:54.072Z,2.67
2023-04-07T09:15:22.815Z,2.77
2023-04-07T09:17:51.287Z,2.77
2023-04-07T09:20:18.772Z,2.73
2023-04-07T09:22:46.390Z,2.86
2023-04-07T09:25:26.513Z,2.91
2023-04-07T09:28:02.282Z,2.95
2023-04-07T09:30:33.274Z,3.06
2023-04-07T09:33:02.562Z,2.97
2023-04-07T09:35:52.639Z,3.04
2023-04-07T09:38:19.964Z,3.13
2023-04-07T09:40:48.732Z,3.18
2023-04-07T09:43:17.868Z,3.06
2023-04-07T09:45:45.454Z,3.05
2023-04-07T09:48:21.150Z,3.15
2023-04-07T09:50:49.858Z,3.11
2023-04-07T09:53:17.455Z,3.16
2023-04-07T09:55:51.354Z,3.16
2023-04-07T09:58:20.242Z,3.14
2023-04-07T10:00:49.406Z,3.17
2023-04-07T10:03:19.226Z,3.10
2023-04-07T10:05:47.163Z,3.12
2023-04-07T10:08:14.808Z,3.16
2023-04-07T10:10:44.793Z,3.27
2023-04-07T10:13:13.592Z,3.14
2023-04-07T10:15:48.135Z,3.17
2023-04-07T10:18:33.403Z,3.20
2023-04-07T10:21:08.117Z,3.14
2023-04-07T10:23:49.841Z,3.11
2023-04-07T10:26:21.980Z,3.17
2023-04-07T10:28:54.207Z,3.22
2023-04-07T10:31:23.353Z,3.17
2023-04-07T10:33:53.131Z,3.28
2023-04-07T10:36:29.257Z,3.34
2023-04-07T10:39:08.496Z,3.31
2023-04-07T10:41:40.496Z,3.30
2023-04-07T10:44:09.832Z,3.13
2023-04-07T10:46:46.089Z,3.10
2023-04-07T10:49:15.659Z,3.02
2023-04-07T10:51:45.649Z,3.11
2023-04-07T10:54:23.399Z,3.19
2023-04-07T10:57:11.332Z,3.27
2023-04-07T11:00:04.649Z,3.29
2023-04-07T11:02:33.231Z,3.20
2023-04-07T11:05:02.972Z,3.16
2023-04-07T11:07:50.232Z,3.22
2023-04-07T11:10:23.436Z,3.32
2023-04-07T11:13:08.961Z,3.34
2023-04-07T11:15:40.697Z,3.34
2023-04-07T11:18:17.436Z,3.25
2023-04-07T11:20:51.818Z,3.39
2023-04-07T11:23:21.206Z,3.39
2023-04-07T11:25:50.131Z,3.39
2023-04-07T11:28:18.212Z,3.40
2023-04-07T11:30:48.913Z,3.38
2023-04-07T11:33:24.463Z,3.30
2023-04-07T11:35:58.583Z,3.26
2023-04-07T11:38:38.486Z,3.31
2023-04-07T11:41:16.361Z,3.33
2023-04-07T11:43:46.195Z,3.29
2023-04-07T11:46:19.890Z,3.42
2023-04-07T11:48:47.713Z,3.49
2023-04-07T11:51:20.978Z,3.54
2023-04-07T11:53:48.864Z,3.63
2023-04-07T11:56:19.020Z,3.56
2023-04-07T11:58:54.264Z,3.53
2023-04-07T12:01:22.657Z,3.51
2023-04-07T12:04:02.561Z,3.60
2023-04-07T12:06:43.038Z,3.64
2023-04-07T12:09:38.294Z,3.65
2023-04-07T12:12:08.174Z,3.68
2023-04-07T12:14:36.784Z,3.68
2023-04-07T12:17:04.591Z,3.53
2023-04-07T12:19:36.224Z,3.61
2023-04-07T12:22:06.180Z,3.64
2023-04-07T12:24:33.661Z,3.69
2023-04-07T12:27:01.256Z,3.69
2023-04-07T12:29:28.817Z,3.75
2023-04-07T12:31:57.224Z,3.74
2023-04-07T12:34:27.629Z,3.78
2023-04-07T12:36:55.065Z,3.78
2023-04-07T12:39:22.495Z,3.83
2023-04-07T12:41:53.353Z,3.83
2023-04-07T12:44:28.742Z,3.79
2023-04-07T12:46:58.206Z,3.77
2023-04-07T12:49:26.618Z,3.81
2023-04-07T12:51:54.168Z,3.88
2023-04-07T12:54:22.308Z,3.87
2023-04-07T12:56:53.257Z,3.83
2023-04-07T12:59:22.349Z,3.79
2023-04-07T13:01:52.094Z,3.79
2023-04-07T13:04:19.855Z,3.76
2023-04-07T13:06:47.069Z,3.78
2023-04-07T13:09:15.304Z,3.83
2023-04-07T13:11:44.549Z,3.79
2023-04-07T13:14:13.195Z,3.77
2023-04-07T13:16:40.605Z,3.85
2023-04-07T13:19:09.637Z,3.86
2023-04-07T13:24:08.978Z,3.85
2023-04-07T13:26:42.711Z,3.79
2023-04-07T13:29:10.078Z,3.78
2023-04-07T13:31:37.565Z,3.81
2023-04-07T13:34:04.950Z,3.84
2023-04-07T13:36:32.447Z,3.88
2023-04-07T13:39:00.134Z,3.85
2023-04-07T13:41:27.355Z,3.80
2023-04-07T13:43:57.015Z,3.94
2023-04-07T13:46:28.831Z,4.02
2023-04-07T13:48:57.425Z,4.01
2023-04-07T13:51:25.038Z,3.99
2023-04-07T13:53:54.400Z,3.74
2023-04-07T13:56:22.819Z,3.84
2023-04-07T13:58:50.820Z,3.85
2023-04-07T14:01:18.521Z,3.83
2023-04-07T14:03:46.641Z,3.87
2023-04-07T14:06:15.284Z,3.83
2023-04-07T14:08:43.671Z,3.87
2023-04-07T14:11:11.386Z,3.83
2023-04-07T14:13:45.255Z,3.78
2023-04-07T14:16:13.113Z,3.88
2023-04-07T14:18:40.691Z,3.91
2023-04-07T14:21:08.203Z,3.85
2023-04-07T14:23:37.716Z,3.93
2023-04-07T14:26:11.524Z,3.88
2023-04-07T14:28:38.565Z,3.87
2023-04-07T14:31:06.951Z,3.87
2023-04-07T14:33:40.444Z,3.91
2023-04-07T14:36:09.921Z,3.88
2023-04-07T14:38:37.399Z,3.93
2023-04-07T14:41:10.035Z,3.96
2023-04-07T14:43:39.581Z,4.01
2023-04-07T14:46:07.321Z,4.00
2023-04-07T14:48:34.799Z,4.05
2023-04-07T14:51:09.809Z,4.05
2023-04-07T14:53:37.469Z,3.90
2023-04-07T14:56:08.079Z,4.03
2023-04-07T14:58:37.768Z,3.99
2023-04-07T15:01:06.541Z,4.06
2023-04-07T15:03:36.087Z,4.11
2023-04-07T15:06:19.914Z,4.02
2023-04-07T15:08:48.008Z,3.99
2023-04-07T15:11:15.176Z,4.06
2023-04-07T15:13:42.593Z,4.02
2023-04-07T15:16:22.529Z,4.06
2023-04-07T15:18:51.345Z,4.09
2023-04-07T15:21:19.603Z,4.09
2023-04-07T15:23:47.964Z,4.08
2023-04-07T15:26:18.366Z,4.07
2023-04-07T15:28:46.016Z,4.07
2023-04-07T15:31:13.461Z,3.94
2023-04-07T15:33:41.397Z,3.99
2023-04-07T15:36:09.613Z,4.00
2023-04-07T15:38:39.131Z,3.98
2023-04-07T15:41:07.000Z,3.97
2023-04-07T15:43:35.628Z,3.94
2023-04-07T15:46:02.718Z,3.95
2023-04-07T15:48:30.303Z,3.93
2023-04-07T15:50:57.726Z,3.89
2023-04-07T15:53:26.254Z,3.91
2023-04-07T15:55:53.548Z,3.82
2023-04-07T15:58:22.982Z,3.88
2023-04-07T16:00:50.631Z,3.93
2023-04-07T16:03:19.071Z,3.89
2023-04-07T16:05:46.535Z,3.89
2023-04-07T16:08:13.995Z,3.86
2023-04-07T16:10:41.593Z,3.78
2023-04-07T16:13:11.870Z,3.84
2023-04-07T16:15:40.788Z,3.89
2023-04-07T16:18:10.881Z,3.85
2023-04-07T16:20:38.876Z,3.78
2023-04-07T16:23:06.575Z,3.92
2023-04-07T16:25:35.955Z,3.82
2023-04-07T16:28:03.643Z,3.93
2023-04-07T16:30:31.064Z,3.96
2023-04-07T16:33:00.403Z,3.93
2023-04-07T16:35:32.167Z,3.90
2023-04-07T16:38:06.325Z,3.83
2023-04-07T16:40:34.352Z,3.89
2023-04-07T16:43:03.097Z,3.84
2023-04-07T16:45:30.453Z,3.90
2023-04-07T16:47:58.115Z,3.86
2023-04-07T16:50:25.357Z,3.87
2023-04-07T16:52:53.302Z,3.88
2023-04-07T16:55:20.919Z,3.90
2023-04-07T16:57:49.646Z,3.94
2023-04-07T17:00:17.383Z,3.91
2023-04-07T17:02:44.872Z,3.87
2023-04-07T17:05:14.130Z,3.87
2023-04-07T17:07:41.347Z,3.72
2023-04-07T17:10:10.147Z,3.52
2023-04-07T17:12:45.114Z,3.53
2023-04-07T17:15:12.710Z,3.62
2023-04-07T17:17:41.167Z,3.64
2023-04-07T17:20:10.005Z,3.76
2023-04-07T17:22:38.590Z,3.75
2023-04-07T17:25:06.836Z,3.63
2023-04-07T17:27:34.072Z,3.67
2023-04-07T17:30:02.098Z,3.69
2023-04-07T17:32:29.519Z,3.70
2023-04-07T17:34:58.685Z,3.77
2023-04-07T17:37:26.861Z,3.86
2023-04-07T17:39:54.479Z,3.83
2023-04-07T17:42:21.877Z,3.77
2023-04-07T17:44:52.914Z,3.78
2023-04-07T17:47:20.324Z,3.85
2023-04-07T17:49:47.771Z,3.81
2023-04-07T17:52:15.294Z,3.80
2023-04-07T17:54:43.766Z,3.82
2023-04-07T17:57:11.854Z,3.87
2023-04-07T17:59:39.208Z,3.84
2023-04-07T18:02:10.515Z,3.85
2023-04-07T18:04:38.191Z,3.83
2023-04-07T18:07:05.803Z,3.83
2023-04-07T18:09:33.897Z,3.82
2023-04-07T18:12:03.192Z,3.77
2023-04-07T18:14:30.529Z,3.77
2023-04-07T18:16:58.069Z,3.74
2023-04-07T18:19:26.641Z,3.73
2023-04-07T18:21:54.823Z,3.80
2023-04-07T18:24:23.967Z,3.80
2023-04-07T18:26:51.495Z,3.72
2023-04-07T18:29:18.985Z,3.65
2023-04-07T18:31:46.608Z,3.64
2023-04-07T18:34:14.780Z,3.76
2023-04-07T18:36:43.182Z,3.72
2023-04-07T18:39:16.360Z,3.80
2023-04-07T18:41:45.750Z,3.77
2023-04-07T18:44:14.279Z,3.78
2023-04-07T18:46:42.229Z,3.68
2023-04-07T18:49:10.997Z,3.74
2023-04-07T18:51:39.447Z,3.75
2023-04-07T18:54:07.909Z,3.75
2023-04-07T18:56:38.732Z,3.76
2023-04-07T18:59:08.360Z,3.63
2023-04-07T19:01:36.132Z,3.73
2023-04-07T19:04:05.926Z,3.77
2023-04-07T19:06:33.350Z,3.79
2023-04-07T19:09:00.697Z,3.63
2023-04-07T19:11:28.195Z,3.72
2023-04-07T19:13:57.953Z,3.66
2023-04-07T19:16:26.527Z,3.70
2023-04-07T19:18:54.517Z,3.66
2023-04-07T19:21:22.522Z,3.72
2023-04-07T19:23:50.387Z,3.78
2023-04-07T19:26:20.372Z,3.82
2023-04-07T19:28:49.754Z,3.74
2023-04-07T19:31:17.214Z,3.64
2023-04-07T19:33:44.623Z,3.74
2023-04-07T19:36:12.236Z,3.70
2023-04-07T19:38:46.636Z,3.81
2023-04-07T19:41:14.229Z,3.73
2023-04-07T19:43:41.727Z,3.81
2023-04-07T19:46:09.488Z,3.84
2023-04-07T19:48:37.467Z,3.77
2023-04-07T19:51:09.047Z,3.83
2023-04-07T19:53:36.569Z,3.79
2023-04-07T19:56:06.171Z,3.76
2023-04-07T19:58:34.805Z,3.72
2023-04-07T20:01:04.824Z,3.59
2023-04-07T20:03:32.324Z,3.72
2023-04-07T20:06:00.112Z,3.70
2023-04-07T20:08:27.497Z,3.82
2023-04-07T20:10:54.738Z,3.83
2023-04-07T20:13:23.667Z,3.80
2023-04-07T20:15:51.378Z,3.82
2023-04-07T20:18:25.129Z,3.73
2023-04-07T20:21:03.919Z,3.68
2023-04-07T20:23:33.201Z,3.80
2023-04-07T20:26:01.874Z,3.59
2023-04-07T20:28:29.190Z,3.66
2023-04-07T20:30:56.635Z,3.69
2023-04-07T20:33:24.066Z,3.76
2023-04-07T20:35:51.496Z,3.72
2023-04-07T20:38:19.362Z,3.65
2023-04-07T20:40:49.970Z,3.65
2023-04-07T20:43:18.475Z,3.58
2023-04-07T20:45:47.720Z,3.72
2023-04-07T20:48:15.890Z,3.70
2023-04-07T20:50:43.679Z,3.80
2023-04-07T20:53:10.930Z,3.86
2023-04-07T20:55:38.641Z,3.87
2023-04-07T20:58:06.164Z,3.69
2023-04-07T21:00:33.971Z,3.82
2023-04-07T21:03:01.302Z,3.82
2023-04-07T21:05:34.934Z,3.87
2023-04-07T21:08:02.007Z,3.88
2023-04-07T21:10:30.341Z,3.67
2023-04-07T21:12:57.662Z,3.64
2023-04-07T21:15:26.267Z,3.74
2023-04-07T21:17:54.680Z,3.91
2023-04-07T21:20:22.100Z,3.94
2023-04-07T21:22:50.639Z,3.99
2023-04-07T21:25:19.016Z,4.01
2023-04-07T21:27:47.505Z,3.97
2023-04-07T21:30:14.845Z,3.69
2023-04-07T21:32:42.437Z,3.62
2023-04-07T21:35:09.793Z,3.77
2023-04-07T21:37:37.334Z,3.79
2023-04-07T21:40:04.970Z,3.81
2023-04-07T21:42:32.339Z,3.73
2023-04-07T21:44:59.603Z,3.73
2023-04-07T21:47:27.454Z,3.69
2023-04-07T21:49:55.068Z,3.82
2023-04-07T21:52:22.798Z,3.80
2023-04-07T21:54:49.836Z,3.86
2023-04-07T21:57:17.130Z,3.66
2023-04-07T21:59:45.811Z,3.84
2023-04-07T22:02:13.886Z,3.86
2023-04-07T22:04:42.938Z,3.91
2023-04-07T22:07:10.063Z,3.95
2023-04-07T22:09:37.427Z,3.95
2023-04-07T22:12:05.974Z,3.94
2023-04-07T22:14:33.393Z,3.94
2023-04-07T22:17:00.877Z,4.00
2023-04-07T22:19:28.265Z,4.04
2023-04-07T22:21:55.680Z,4.10
2023-04-07T22:24:23.122Z,4.08
2023-04-07T22:26:54.175Z,4.03
2023-04-07T22:29:21.874Z,4.13
2023-04-07T22:31:49.096Z,4.12
2023-04-07T22:34:16.646Z,4.09
2023-04-07T22:36:44.207Z,4.05
2023-04-07T22:39:11.990Z,3.90
2023-04-07T22:41:39.461Z,3.80
2023-04-07T22:44:06.995Z,4.01
2023-04-07T22:46:46.779Z,4.06
2023-04-07T22:49:15.078Z,3.99
2023-04-07T22:51:48.678Z,3.99
2023-04-07T22:54:16.620Z,3.91
2023-04-07T22:56:51.417Z,3.88
2023-04-07T22:59:18.720Z,3.97
2023-04-07T23:01:46.507Z,3.87
2023-04-07T23:04:14.680Z,3.61
2023-04-07T23:06:43.861Z,3.54
2023-04-07T23:09:11.849Z,3.52
2023-04-07T23:11:39.113Z,3.48
2023-04-07T23:14:07.273Z,3.49
2023-04-07T23:16:34.898Z,3.50
2023-04-07T23:19:02.373Z,3.48
2023-04-07T23:21:31.345Z,3.48
2023-04-07T23:24:00.193Z,3.42
2023-04-07T23:26:27.466Z,3.44
2023-04-07T23:28:54.833Z,3.72
2023-04-07T23:31:23.347Z,3.87
2023-04-07T23:33:50.977Z,3.89
2023-04-07T23:36:27.455Z,3.97
2023-04-07T23:38:58.086Z,4.03
2023-04-07T23:41:26.946Z,4.12
2023-04-07T23:43:55.191Z,4.09
2023-04-07T23:46:22.639Z,4.03
2023-04-07T23:48:50.134Z,3.96
2023-04-07T23:51:17.870Z,3.95
2023-04-07T23:53:47.371Z,3.97
2023-04-07T23:56:14.954Z,3.96
2023-04-07T23:58:42.318Z,3.92
